createdAt,value
2023-02-28T00:01:15.302Z,57.73
2023-02-28T00:03:42.546Z,62.72
2023-02-28T00:06:10.624Z,61.47
2023-02-28T00:08:38.844Z,52.15
2023-02-28T00:11:08.335Z,58.17
2023-02-28T00:13:38.553Z,53.93
2023-02-28T00:16:08.250Z,74.30
2023-02-28T00:18:35.507Z,67.20
2023-02-28T00:21:02.529Z,80.37
2023-02-28T00:23:29.875Z,85.47
2023-02-28T00:25:56.850Z,70.30
2023-02-28T00:28:24.451Z,76.23
2023-02-28T00:30:51.461Z,52.10
2023-02-28T00:33:18.673Z,46.50
2023-02-28T00:35:47.550Z,44.47
2023-02-28T00:38:15.505Z,41.33
2023-02-28T00:40:42.798Z,52.37
2023-02-28T00:43:10.267Z,51.80
2023-02-28T00:45:37.138Z,62.03
2023-02-28T00:48:05.247Z,61.97
2023-02-28T00:50:32.180Z,60.33
2023-02-28T00:52:59.342Z,54.47
2023-02-28T00:55:26.185Z,65.23
2023-02-28T00:57:53.339Z,63.23
2023-02-28T01:00:20.438Z,63.87
2023-02-28T01:02:47.691Z,45.37
2023-02-28T01:05:15.240Z,47.27
2023-02-28T01:07:42.501Z,52.80
2023-02-28T01:10:10.079Z,56.33
2023-02-28T01:12:37.304Z,59.20
2023-02-28T01:15:05.083Z,50.97
2023-02-28T01:17:32.268Z,55.15
2023-02-28T01:19:59.154Z,57.17
2023-02-28T01:22:26.458Z,52.27
2023-02-28T01:24:53.966Z,58.77
2023-02-28T01:27:21.169Z,64.63
2023-02-28T01:29:48.017Z,63.83
2023-02-28T01:32:15.238Z,61.57
2023-02-28T01:34:42.308Z,50.70
2023-02-28T01:37:09.583Z,56.33
2023-02-28T01:39:36.464Z,54.30
2023-02-28T01:42:03.731Z,49.03
2023-02-28T01:45:00.302Z,45.03
2023-02-28T01:47:32.836Z,44.87
2023-02-28T01:50:01.830Z,54.87
2023-02-28T01:52:30.140Z,46.67
2023-02-28T01:55:00.474Z,44.22
2023-02-28T01:57:38.606Z,54.37
2023-02-28T02:00:14.294Z,43.28
2023-02-28T02:02:44.535Z,40.60
2023-02-28T02:05:15.553Z,53.93
2023-02-28T02:07:45.543Z,56.33
2023-02-28T02:10:51.336Z,48.10
2023-02-28T02:13:47.521Z,54.17
2023-02-28T02:16:23.230Z,43.77
2023-02-28T02:18:55.061Z,48.03
2023-02-28T02:21:40.227Z,56.07
2023-02-28T02:24:29.264Z,48.57
2023-02-28T02:27:14.586Z,45.23
2023-02-28T02:29:44.636Z,51.57
2023-02-28T02:32:31.335Z,57.67
2023-02-28T02:35:20.311Z,41.77
2023-02-28T02:40:20.938Z,49.33
2023-02-28T02:43:10.369Z,53.00
2023-02-28T02:45:46.740Z,47.07
2023-02-28T02:48:19.314Z,56.17
2023-02-28T02:51:13.063Z,54.77
2023-02-28T02:53:47.747Z,70.83
2023-02-28T02:56:18.074Z,55.40
2023-02-28T02:58:46.794Z,43.77
2023-02-28T03:01:28.893Z,45.60
2023-02-28T03:03:58.821Z,57.17
2023-02-28T03:06:27.224Z,44.50
2023-02-28T03:08:54.759Z,42.25
2023-02-28T03:11:22.056Z,38.60
2023-02-28T03:14:24.429Z,38.90
2023-02-28T03:17:12.753Z,42.23
2023-02-28T03:19:52.163Z,41.92
2023-02-28T03:22:25.197Z,47.70
2023-02-28T03:25:03.544Z,40.43
2023-02-28T03:30:10.549Z,39.28
2023-02-28T03:33:07.028Z,45.80
2023-02-28T03:35:39.059Z,55.33
2023-02-28T03:38:34.265Z,58.83
2023-02-28T03:41:14.288Z,48.77
2023-02-28T03:43:49.708Z,51.00
2023-02-28T03:46:22.232Z,40.50
2023-02-28T03:48:56.034Z,42.93
2023-02-28T03:51:26.613Z,46.10
2023-02-28T03:53:59.634Z,41.13
2023-02-28T03:56:38.560Z,36.23
2023-02-28T03:59:25.214Z,38.10
2023-02-28T04:01:52.884Z,37.70
2023-02-28T04:04:20.126Z,38.08
2023-02-28T04:06:51.600Z,40.90
2023-02-28T04:09:19.110Z,32.43
2023-02-28T04:11:56.731Z,37.97
2023-02-28T04:14:24.279Z,33.13
2023-02-28T04:16:52.047Z,33.70
2023-02-28T04:19:19.684Z,29.13
2023-02-28T04:21:51.682Z,32.20
2023-02-28T04:24:24.248Z,33.17
2023-02-28T04:26:54.097Z,36.83
2023-02-28T04:29:27.026Z,51.70
2023-02-28T04:31:54.577Z,56.47
2023-02-28T04:34:22.688Z,66.47
2023-02-28T04:37:10.348Z,67.40
2023-02-28T04:39:39.132Z,77.23
2023-02-28T04:42:06.204Z,56.97
2023-02-28T04:44:33.442Z,64.63
2023-02-28T04:47:00.534Z,60.87
2023-02-28T04:49:27.796Z,51.63
2023-02-28T04:51:54.780Z,54.40
2023-02-28T04:54:21.982Z,60.63
2023-02-28T04:56:50.974Z,58.93
2023-02-28T04:59:18.811Z,59.23
2023-02-28T05:01:49.835Z,69.90
2023-02-28T05:04:18.252Z,61.90
2023-02-28T05:06:46.253Z,95.60
2023-02-28T05:09:15.006Z,111.10
2023-02-28T05:11:42.982Z,115.32
2023-02-28T05:14:15.111Z,96.43
2023-02-28T05:16:42.442Z,92.77
2023-02-28T05:19:10.007Z,88.43
2023-02-28T05:21:40.902Z,73.97
2023-02-28T05:24:11.316Z,63.27
2023-02-28T05:26:43.203Z,83.03
2023-02-28T05:29:11.448Z,77.60
2023-02-28T05:31:38.546Z,66.95
2023-02-28T05:34:06.447Z,78.50
2023-02-28T05:36:34.020Z,73.80
2023-02-28T05:39:01.302Z,80.47
2023-02-28T05:41:28.733Z,73.70
2023-02-28T05:43:56.368Z,68.37
2023-02-28T05:46:23.331Z,157.70
2023-02-28T05:48:50.971Z,137.73
2023-02-28T05:51:18.704Z,170.37
2023-02-28T05:53:46.483Z,129.02
2023-02-28T05:56:13.379Z,144.97
2023-02-28T05:58:40.480Z,118.33
2023-02-28T06:01:33.459Z,122.63
2023-02-28T06:04:02.160Z,113.90
2023-02-28T06:06:30.664Z,115.68
2023-02-28T06:08:58.397Z,100.65
2023-02-28T06:11:28.742Z,65.70
2023-02-28T06:13:57.855Z,68.27
2023-02-28T06:16:25.609Z,60.63
2023-02-28T06:18:59.184Z,48.77
2023-02-28T06:21:26.251Z,50.80
2023-02-28T06:23:53.498Z,44.43
2023-02-28T06:26:21.131Z,37.97
2023-02-28T06:28:48.487Z,36.73
2023-02-28T06:31:18.084Z,33.87
2023-02-28T06:33:46.607Z,30.90
2023-02-28T06:36:15.236Z,25.42
2023-02-28T06:38:42.994Z,26.52
2023-02-28T06:41:11.390Z,24.23
2023-02-28T06:43:41.693Z,24.23
2023-02-28T06:46:11.432Z,21.93
2023-02-28T06:48:38.807Z,17.53
2023-02-28T06:51:10.697Z,17.47
2023-02-28T06:53:38.169Z,19.07
2023-02-28T06:56:07.451Z,22.67
2023-02-28T06:58:35.401Z,22.13
2023-02-28T07:01:03.216Z,26.67
2023-02-28T07:03:32.232Z,31.70
2023-02-28T07:06:01.287Z,23.50
2023-02-28T07:08:28.599Z,20.27
2023-02-28T07:10:56.699Z,17.70
2023-02-28T07:13:24.393Z,18.33
2023-02-28T07:16:02.804Z,19.83
2023-02-28T07:18:30.313Z,18.63
2023-02-28T07:20:57.365Z,18.53
2023-02-28T07:23:25.427Z,21.13
2023-02-28T07:25:53.072Z,18.63
2023-02-28T07:28:20.218Z,15.73
2023-02-28T07:30:47.276Z,14.90
2023-02-28T07:33:14.511Z,16.67
2023-02-28T07:35:42.259Z,16.53
2023-02-28T07:38:09.983Z,17.27
2023-02-28T07:40:37.517Z,15.80
2023-02-28T07:43:04.990Z,16.93
2023-02-28T07:45:35.285Z,17.67
2023-02-28T07:48:03.027Z,15.73
2023-02-28T07:50:32.848Z,22.58
2023-02-28T07:53:00.518Z,17.30
2023-02-28T07:55:28.019Z,16.00
2023-02-28T07:57:55.496Z,15.10
2023-02-28T08:00:23.043Z,14.97
2023-02-28T08:02:50.632Z,14.17
2023-02-28T08:05:21.437Z,13.40
2023-02-28T08:07:50.635Z,14.90
2023-02-28T08:10:17.725Z,15.32
2023-02-28T08:12:44.899Z,17.17
2023-02-28T08:15:12.104Z,15.80
2023-02-28T08:17:39.382Z,14.97
2023-02-28T08:20:06.949Z,16.77
2023-02-28T08:22:34.141Z,20.40
2023-02-28T08:25:01.066Z,12.20
2023-02-28T08:27:28.288Z,13.47
2023-02-28T08:29:55.180Z,14.50
2023-02-28T08:32:30.680Z,13.47
2023-02-28T08:34:57.966Z,11.60
2023-02-28T08:37:25.481Z,12.53
2023-02-28T08:39:55.977Z,14.53
2023-02-28T08:42:24.177Z,15.03
2023-02-28T08:44:51.093Z,12.77
2023-02-28T08:47:18.234Z,12.33
2023-02-28T08:49:45.072Z,20.67
2023-02-28T08:52:12.268Z,13.00
2023-02-28T08:54:39.201Z,16.03
2023-02-28T08:57:06.587Z,12.17
2023-02-28T08:59:33.663Z,13.63
2023-02-28T09:02:00.956Z,16.73
2023-02-28T09:04:27.805Z,11.33
2023-02-28T09:06:54.979Z,14.87
2023-02-28T09:09:21.862Z,14.27
2023-02-28T09:11:49.055Z,18.37
2023-02-28T09:14:16.027Z,10.73
2023-02-28T09:16:43.183Z,12.93
2023-02-28T09:19:13.126Z,11.37
2023-02-28T09:21:40.730Z,26.57
2023-02-28T09:24:08.207Z,55.47
2023-02-28T09:26:42.882Z,42.50
2023-02-28T09:29:15.599Z,13.00
2023-02-28T09:31:42.775Z,29.05
2023-02-28T09:34:10.033Z,12.53
2023-02-28T09:36:45.812Z,36.17
2023-02-28T09:39:16.495Z,13.30
2023-02-28T09:41:52.064Z,39.40
2023-02-28T09:44:40.552Z,61.30
2023-02-28T09:47:25.425Z,12.80
2023-02-28T09:49:52.378Z,11.53
2023-02-28T09:52:29.371Z,12.53
2023-02-28T09:54:56.353Z,17.83
2023-02-28T09:57:34.650Z,15.37
2023-02-28T10:00:10.774Z,11.33
2023-02-28T10:03:07.647Z,10.83
2023-02-28T10:05:40.174Z,12.50
2023-02-28T10:08:26.427Z,9.50
2023-02-28T10:10:58.681Z,14.97
2023-02-28T10:13:36.300Z,15.83
2023-02-28T10:16:15.610Z,12.43
2023-02-28T10:19:11.902Z,11.47
2023-02-28T10:21:49.207Z,14.13
2023-02-28T10:24:34.693Z,13.60
2023-02-28T10:27:18.597Z,12.17
2023-02-28T10:29:49.114Z,11.40
2023-02-28T10:32:19.285Z,15.67
2023-02-28T10:35:07.609Z,12.37
2023-02-28T10:37:39.249Z,11.40
2023-02-28T10:40:25.732Z,15.10
2023-02-28T10:43:03.034Z,13.47
2023-02-28T10:45:37.144Z,16.40
2023-02-28T10:48:14.694Z,15.17
2023-02-28T10:50:48.073Z,10.90
2023-02-28T10:53:18.024Z,20.67
2023-02-28T10:55:45.373Z,15.37
2023-02-28T10:58:26.654Z,17.43
2023-02-28T11:00:54.092Z,13.83
2023-02-28T11:03:33.750Z,16.67
2023-02-28T11:06:08.129Z,14.97
2023-02-28T11:08:35.495Z,14.40
2023-02-28T11:11:07.315Z,17.17
2023-02-28T11:13:39.030Z,117.03
2023-02-28T11:16:10.088Z,20.47
2023-02-28T11:18:56.870Z,56.90
2023-02-28T11:21:29.826Z,229.33
2023-02-28T11:24:17.474Z,137.80
2023-02-28T11:26:49.632Z,122.53
2023-02-28T11:29:20.112Z,14.23
2023-02-28T11:32:09.759Z,88.70
2023-02-28T11:34:38.605Z,34.90
2023-02-28T11:37:12.760Z,15.57
2023-02-28T11:39:39.819Z,15.27
2023-02-28T11:42:29.473Z,18.73
2023-02-28T11:45:33.428Z,19.00
2023-02-28T11:48:06.852Z,16.63
2023-02-28T11:50:43.657Z,16.93
2023-02-28T11:53:38.678Z,14.13
2023-02-28T11:56:31.374Z,17.40
2023-02-28T11:59:04.928Z,17.70
2023-02-28T12:01:40.162Z,15.13
2023-02-28T12:04:26.814Z,17.97
2023-02-28T12:07:26.587Z,20.63
2023-02-28T12:10:09.127Z,16.20
2023-02-28T12:12:57.277Z,12.83
2023-02-28T12:15:39.511Z,37.63
2023-02-28T12:18:18.358Z,14.87
2023-02-28T12:23:38.947Z,20.97
2023-02-28T12:26:28.633Z,37.37
2023-02-28T12:29:02.483Z,16.17
2023-02-28T12:31:39.446Z,19.57
2023-02-28T12:34:17.025Z,17.03
2023-02-28T12:36:47.292Z,13.77
2023-02-28T12:39:24.056Z,16.30
2023-02-28T12:42:09.409Z,15.40
2023-02-28T12:44:47.740Z,14.37
2023-02-28T12:47:17.929Z,57.38
2023-02-28T12:49:55.610Z,137.10
2023-02-28T12:52:45.797Z,103.23
2023-02-28T12:55:41.840Z,18.27
2023-02-28T12:58:08.929Z,18.63
2023-02-28T13:00:41.032Z,41.13
2023-02-28T13:03:31.260Z,14.30
2023-02-28T13:06:22.477Z,17.83
2023-02-28T13:09:22.469Z,22.90
2023-02-28T13:11:54.700Z,26.67
2023-02-28T13:14:38.165Z,13.63
2023-02-28T13:17:08.201Z,20.43
2023-02-28T13:20:00.667Z,18.00
2023-02-28T13:22:27.437Z,21.63
2023-02-28T13:24:56.383Z,45.00
2023-02-28T13:27:26.388Z,20.08
2023-02-28T13:29:54.482Z,19.60
2023-02-28T13:32:30.851Z,15.13
2023-02-28T13:34:58.029Z,18.70
2023-02-28T13:37:30.803Z,15.00
2023-02-28T13:40:02.058Z,16.87
2023-02-28T13:42:31.717Z,19.00
2023-02-28T13:45:05.030Z,14.97
2023-02-28T13:47:48.051Z,20.27
2023-02-28T13:50:27.848Z,15.43
2023-02-28T13:53:12.665Z,14.63
2023-02-28T13:56:04.017Z,18.00
2023-02-28T13:58:52.729Z,17.33
2023-02-28T14:01:23.097Z,17.57
2023-02-28T14:04:12.277Z,22.50
2023-02-28T14:06:47.291Z,20.87
2023-02-28T14:09:24.869Z,16.50
2023-02-28T14:11:52.741Z,17.43
2023-02-28T14:14:37.680Z,22.60
2023-02-28T14:17:08.454Z,18.90
2023-02-28T14:19:38.857Z,19.77
2023-02-28T14:22:39.977Z,18.77
2023-02-28T14:25:22.698Z,24.03
2023-02-28T14:28:11.180Z,32.63
2023-02-28T14:31:13.635Z,23.38
2023-02-28T14:33:40.965Z,28.07
2023-02-28T14:36:27.605Z,20.70
2023-02-28T14:38:59.117Z,21.43
2023-02-28T14:41:39.568Z,25.17
2023-02-28T14:44:24.708Z,18.03
2023-02-28T14:46:55.250Z,24.87
2023-02-28T14:49:28.599Z,37.93
2023-02-28T14:52:13.965Z,25.40
2023-02-28T14:54:42.312Z,29.93
2023-02-28T14:57:31.704Z,33.73
2023-02-28T15:00:16.906Z,17.90
2023-02-28T15:02:44.597Z,27.13
2023-02-28T15:05:17.639Z,18.63
2023-02-28T15:07:45.621Z,19.17
2023-02-28T15:10:21.080Z,25.00
2023-02-28T15:12:53.779Z,45.07
2023-02-28T15:15:28.218Z,63.50
2023-02-28T15:18:06.652Z,35.77
2023-02-28T15:20:35.375Z,91.63
2023-02-28T15:23:03.266Z,41.95
2023-02-28T15:25:30.708Z,30.40
2023-02-28T15:27:59.085Z,36.97
2023-02-28T15:30:31.603Z,26.20
2023-02-28T15:33:20.116Z,34.47
2023-02-28T15:35:49.094Z,24.92
2023-02-28T15:38:19.066Z,24.70
2023-02-28T15:40:54.816Z,25.60
2023-02-28T15:43:29.130Z,21.73
2023-02-28T15:45:58.845Z,18.87
2023-02-28T15:48:30.812Z,18.10
2023-02-28T15:51:02.361Z,27.40
2023-02-28T15:53:53.720Z,32.70
2023-02-28T15:56:37.552Z,22.50
2023-02-28T15:59:08.190Z,29.20
2023-02-28T16:01:37.977Z,30.77
2023-02-28T16:04:07.893Z,37.23
2023-02-28T16:06:45.501Z,34.63
2023-02-28T16:09:17.614Z,43.10
2023-02-28T16:11:49.036Z,42.50
2023-02-28T16:14:33.588Z,37.83
2023-02-28T16:17:09.822Z,45.30
2023-02-28T16:19:36.789Z,44.70
2023-02-28T16:22:03.939Z,33.40
2023-02-28T16:24:30.845Z,68.87
2023-02-28T16:26:58.634Z,68.90
2023-02-28T16:29:32.228Z,94.50
2023-02-28T16:32:01.247Z,105.67
2023-02-28T16:34:28.452Z,81.38
2023-02-28T16:36:55.638Z,96.60
2023-02-28T16:39:23.043Z,92.63
2023-02-28T16:41:51.911Z,104.27
2023-02-28T16:44:30.975Z,97.60
2023-02-28T16:46:58.236Z,120.90
2023-02-28T16:49:25.232Z,218.47
2023-02-28T16:51:52.424Z,254.10
2023-02-28T16:54:19.416Z,267.67
2023-02-28T16:56:48.961Z,295.70
2023-02-28T16:59:20.815Z,218.20
2023-02-28T17:01:48.128Z,225.30
2023-02-28T17:04:16.720Z,238.70
2023-02-28T17:06:44.361Z,204.90
2023-02-28T17:09:24.608Z,127.43
2023-02-28T17:11:57.998Z,167.80
2023-02-28T17:14:24.945Z,282.03
2023-02-28T17:16:52.168Z,313.73
2023-02-28T17:19:19.484Z,309.97
2023-02-28T17:21:47.054Z,263.70
2023-02-28T17:24:28.963Z,248.07
2023-02-28T17:26:57.626Z,215.23
2023-02-28T17:29:25.511Z,189.43
2023-02-28T17:31:53.245Z,183.48
2023-02-28T17:34:20.817Z,209.73
2023-02-28T17:36:53.200Z,195.60
2023-02-28T17:39:26.866Z,185.40
2023-02-28T17:41:55.871Z,244.47
2023-02-28T17:44:24.926Z,165.40
2023-02-28T17:46:54.483Z,189.07
2023-02-28T17:49:22.082Z,202.77
2023-02-28T17:51:49.858Z,201.40
2023-02-28T17:54:18.322Z,225.07
2023-02-28T17:56:47.227Z,246.03
2023-02-28T17:59:14.178Z,242.63
2023-02-28T18:01:41.454Z,288.10
2023-02-28T18:04:09.038Z,327.23
2023-02-28T18:06:47.520Z,319.27
2023-02-28T18:09:17.098Z,223.30
2023-02-28T18:11:49.074Z,306.70
2023-02-28T18:14:16.833Z,314.57
2023-02-28T18:16:46.422Z,265.23
2023-02-28T18:19:17.726Z,247.23
2023-02-28T18:21:47.232Z,251.13
2023-02-28T18:24:15.884Z,244.80
2023-02-28T18:26:44.451Z,246.63
2023-02-28T18:29:19.097Z,262.20
2023-02-28T18:31:46.390Z,256.30
2023-02-28T18:34:13.417Z,229.10
2023-02-28T18:36:42.326Z,251.20
2023-02-28T18:39:12.148Z,242.00
2023-02-28T18:41:39.825Z,233.27
2023-02-28T18:44:18.788Z,205.53
2023-02-28T18:46:48.229Z,215.67
2023-02-28T18:49:15.214Z,182.53
2023-02-28T18:51:46.721Z,185.77
2023-02-28T18:54:15.218Z,161.63
2023-02-28T18:56:43.094Z,169.48
2023-02-28T18:59:11.345Z,162.23
2023-02-28T19:01:38.909Z,192.32
2023-02-28T19:04:06.570Z,224.23
2023-02-28T19:06:34.455Z,333.67
2023-02-28T19:09:03.994Z,287.40
2023-02-28T19:11:32.036Z,223.27
2023-02-28T19:13:59.034Z,381.10
2023-02-28T19:16:27.973Z,106.53
2023-02-28T19:21:32.711Z,419.87
2023-02-28T19:24:02.233Z,348.37
2023-02-28T19:26:39.148Z,317.83
2023-02-28T19:29:06.571Z,193.13
2023-02-28T19:31:34.146Z,150.63
2023-02-28T19:34:01.886Z,309.43
2023-02-28T19:36:29.103Z,531.87
2023-02-28T19:38:56.052Z,231.87
2023-02-28T19:41:24.409Z,416.57
2023-02-28T19:43:54.234Z,170.27
2023-02-28T19:46:21.618Z,233.70
2023-02-28T19:48:49.221Z,693.70
2023-02-28T19:53:49.637Z,328.10
2023-02-28T19:56:16.792Z,372.70
2023-02-28T19:58:43.609Z,398.67
2023-02-28T20:01:17.000Z,342.60
2023-02-28T20:03:48.549Z,213.00
2023-02-28T20:06:16.107Z,158.00
2023-02-28T20:08:43.288Z,190.90
2023-02-28T20:11:13.246Z,181.63
2023-02-28T20:13:40.195Z,128.20
2023-02-28T20:16:09.899Z,117.50
2023-02-28T20:18:38.920Z,110.70
2023-02-28T20:21:08.976Z,138.27
2023-02-28T20:23:38.218Z,138.40
2023-02-28T20:26:05.869Z,139.80
2023-02-28T20:28:34.380Z,117.97
2023-02-28T20:31:01.655Z,126.05
2023-02-28T20:33:28.760Z,133.07
2023-02-28T20:36:02.860Z,118.27
2023-02-28T20:38:29.802Z,117.80
2023-02-28T20:41:01.259Z,119.30
2023-02-28T20:43:28.548Z,122.97
2023-02-28T20:45:58.555Z,127.20
2023-02-28T20:48:26.068Z,134.63
2023-02-28T20:50:56.130Z,139.77
2023-02-28T20:53:24.895Z,110.07
2023-02-28T20:56:00.681Z,100.20
2023-02-28T20:58:30.319Z,88.37
2023-02-28T21:01:15.913Z,91.67
2023-02-28T21:03:51.458Z,114.30
2023-02-28T21:06:21.320Z,118.97
2023-02-28T21:08:49.148Z,133.70
2023-02-28T21:11:19.398Z,102.30
2023-02-28T21:13:47.148Z,80.27
2023-02-28T21:16:17.687Z,71.22
2023-02-28T21:18:46.017Z,92.50
2023-02-28T21:21:15.458Z,169.50
2023-02-28T21:23:43.180Z,158.57
2023-02-28T21:26:12.472Z,153.85
2023-02-28T21:28:44.058Z,144.67
2023-02-28T21:31:14.421Z,152.37
2023-02-28T21:33:41.439Z,171.77
2023-02-28T21:36:13.148Z,186.93
2023-02-28T21:38:40.925Z,165.27
2023-02-28T21:41:11.137Z,176.75
2023-02-28T21:43:38.702Z,150.50
2023-02-28T21:46:09.363Z,125.83
2023-02-28T21:48:36.763Z,137.97
2023-02-28T21:51:06.742Z,146.03
2023-02-28T21:53:36.680Z,140.77
2023-02-28T21:56:09.244Z,143.20
2023-02-28T21:58:36.240Z,139.30
2023-02-28T22:01:12.316Z,161.90
2023-02-28T22:03:39.767Z,162.53
2023-02-28T22:06:22.096Z,159.20
2023-02-28T22:08:54.029Z,160.10
2023-02-28T22:11:22.623Z,146.00
2023-02-28T22:13:51.831Z,127.47
2023-02-28T22:16:20.816Z,149.27
2023-02-28T22:18:48.080Z,152.60
2023-02-28T22:21:16.677Z,138.67
2023-02-28T22:23:44.856Z,137.88
2023-02-28T22:26:14.276Z,124.28
2023-02-28T22:28:41.621Z,128.97
2023-02-28T22:31:29.620Z,145.40
2023-02-28T22:33:59.839Z,135.87
2023-02-28T22:36:28.027Z,131.37
2023-02-28T22:38:55.002Z,137.52
2023-02-28T22:41:23.432Z,157.03
2023-02-28T22:43:53.462Z,162.40
2023-02-28T22:46:22.295Z,158.87
2023-02-28T22:48:50.069Z,154.57
2023-02-28T22:51:20.062Z,144.10
2023-02-28T22:53:48.803Z,144.40
2023-02-28T22:56:17.916Z,125.17
2023-02-28T22:58:50.540Z,130.40
2023-02-28T23:01:19.196Z,120.63
2023-02-28T23:03:47.137Z,126.07
2023-02-28T23:06:26.821Z,110.43
2023-02-28T23:08:57.140Z,109.67
2023-02-28T23:11:29.312Z,104.13
2023-02-28T23:13:59.840Z,100.37
2023-02-28T23:16:34.734Z,92.10
2023-02-28T23:19:05.952Z,84.27
2023-02-28T23:21:34.417Z,85.33
2023-02-28T23:24:05.375Z,86.13
2023-02-28T23:26:33.283Z,82.77
2023-02-28T23:29:01.293Z,80.93
2023-02-28T23:31:28.618Z,80.30
2023-02-28T23:33:56.562Z,82.97
2023-02-28T23:36:24.283Z,83.03
2023-02-28T23:38:52.823Z,79.43
2023-02-28T23:43:48.485Z,68.28
2023-02-28T23:46:16.246Z,73.93
2023-02-28T23:48:43.660Z,82.07
2023-02-28T23:51:16.722Z,85.93
2023-02-28T23:53:46.861Z,91.00
2023-02-28T23:56:17.675Z,82.13
2023-02-28T23:58:45.940Z,86.53
